AirNav   Air Wisconsin Up To $57,000 Bonus
 
 1020 users online  

4IS6 Hattan Farms Airport
Minonk, Illinois, USA

GOING TO MINONK?


FAA INFORMATION EFFECTIVE 10 OCTOBER 2019

Location

FAA Identifier: 4IS6
Lat/Long: 40-55-50.1220N 089-07-14.2920W
40-55.835367N 089-07.238200W
40.9305894,-89.1206367
(estimated)
Elevation: 710 ft. / 216 m (estimated)
Variation: 00E (1984)
From city: 5 miles W of MINONK, IL
Time zone: UTC -5 (UTC -6 during Standard Time)
Zip code: 61760

Airport Operations

Airport use: Private use. Permission required prior to landing
Activation date: 06/1984
Control tower: no
ARTCC: CHICAGO CENTER
FSS: KANKAKEE FLIGHT SERVICE STATION
Attendance: UNATNDD
Wind indicator: no
Segmented circle: no

Airport Communications

WX AWOS-3 at C75 (13 nm NW): 119.425 (309-246-3089)

Nearby radio navigation aids

VOR radial/distance  VOR name  Freq  Var
PNTr287/18.7PONTIAC VOR/DME109.6003E
BDFr123/25.2BRADFORD VORTAC114.7000E
BMIr339/28.3BLOOMINGTON VOR/DME108.2003E
PIAr060/34.0PEORIA VORTAC115.2004E

Airport Services

Runway Information

Runway 18/36

Dimensions: 1800 x 70 ft. / 549 x 21 m
Surface: turf
RUNWAY 18  RUNWAY 36
Traffic pattern: leftleft

Airport Ownership and Management from official FAA records

Ownership: Privately-owned
Owner: HATTAN FARMS
2723 COUNTY RD 50N
MINONK, IL 61760
Phone 815-452-2605
Manager: WILLIAM LEIGH
2723 COUNTY RD 50N
MINONK, IL 61760
Phone 815-452-2605

Airport Operational Statistics

Aircraft based on the field: 1
Single engine airplanes: 1
    

Additional Remarks

A52-18 DITCH SOUTH OF RWY.
FOR CD CTC CHICAGO ARTCC AT 630-906-8921.

Instrument Procedures

There are no published instrument procedures at 4IS6.

Some nearby airports with instrument procedures:

C75 - Marshall County Airport (13 nm NW)
KPNT - Pontiac Municipal Airport (23 nm E)
3MY - Mount Hawley Auxiliary Airport (24 nm W)
KVYS - Illinois Valley Regional Airport-Walter A Duncan Field (25 nm N)
KBMI - Central Illinois Regional Airport at Bloomington-Normal (29 nm S)
 
Loc | Ops | Rwys | IFR | FBO | Links
Com | Nav | Svcs | Stats | Notes
Area around 4IS6 (Hattan Farms Airport)
 
Road maps at: MapQuest Bing Google
 
Aerial photo
No photo
 
Sectional chart

 
Airport distance calculator
Flying to Hattan Farms Airport? Find the distance to fly.

From to 4IS6

Sunrise and sunset
Times for 15-Oct-2019
 Local
(UTC-5)
 Zulu
(UTC)
Morning civil twilight06:4111:41
Sunrise07:0912:09
Sunset18:1623:16
Evening civil twilight18:4323:43

Current date and time
Zulu (UTC)  15-Oct-2019 23:04:02
Local (UTC-5)  15-Oct-2019 18:04:02
 
METAR
KC75 
13nm NW 
152255Z AUTO 30008G15KT 10SM CLR 15/06 A2980 RMK AO2 LTG DSNT S T01540059
KPNT 
22nm E 
152255Z AUTO 23010KT 10SM CLR 17/15 A2976 RMK AO2 T01730145
KVYS 
25nm N 
152255Z AUTO 29016G24KT 10SM CLR 14/05 A2979 RMK AO2 LTG DSNT NE AND SW T01390052
TAF
KBMI 
29nm S 
152201Z 1522/1618 22014G22KT P6SM VCSH BKN020 FM152300 29014G22KT P6SM BKN025 FM160000 30014G22KT P6SM SCT025 BKN100 FM160600 31015G22KT P6SM BKN025
KPIA 
30nm SW 
151854Z 1519/1618 25013G23KT P6SM BKN025 FM152200 29012G19KT P6SM SCT025 BKN120 FM160500 30012G18KT P6SM BKN025
NOTAMs
Click for the latest NOTAMs
NOTAMs are issued by the DoD/FAA and will open in a separate window not controlled by AirNav.

 

 
 

Would you like to see your business listed on this page?

 If your business provides an interesting product or service to pilots, flight crews, aircraft, or users of the Hattan Farms Airport, you should consider listing it here.  To start the listing process, click on the button below
 
Add a business
 

Other Pages about Hattan Farms Airport

Update a link
 
Copyright © AirNav, LLC. All rights reserved. Privacy Policy  Contact